Nearby METAR Reports

 

KHOB - Hobbs, New Mexico, USA
Distance from station: S 40mi, 65km
Updated: Tue, 21-Jan-2020 7:50am MST
Overcast
Overcast
 Wind from ESE
Wind: ESE 9 mph , 15 km/h
Temperature: 39°F , 4°C
Wind Chill: 33°F , 1°C
Dew Point: 25°F , -4°C
Humidity: 56%
Barometer: 30.26 inHg , 1024.7 hPa
Clouds: Overcast
Visibility: 10 miles , 16 km
Cloud details: Overcast 5500 ft
2020/01/21 14:50 KHOB 211450Z 11008KT 10SM OVC055 04/M04 A3026
KGNC - Seminole, Texas, USA
Distance from station: SE 55mi, 89km
Updated: Tue, 21-Jan-2020 8:35am MST
Partly cloudy
Partly cloudy
 Wind from SE
Wind: SE 15 mph , 24 km/h, Gust: 20 mph , 31 km/h
Temperature: 41°F , 5°C
Wind Chill: 33°F , 1°C
Dew Point: 25°F , -4°C
Humidity: 53%
Barometer: 30.32 inHg , 1026.8 hPa
Clouds: Partly cloudy
Visibility: 10 miles , 16 km
Cloud details: Partly cloudy 6500 ft
2020/01/21 15:35 KGNC 211535Z AUTO 13013G17KT 10SM SCT065 05/M04 A3032 RMK AO2 T00531042
 
KROW - Roswell, New Mexico, USA
Distance from station: W 67mi, 108km
Updated: Tue, 21-Jan-2020 7:51am MST
Clear
Clear
 Wind from SSE
Wind: SSE 3 mph , 6 km/h
Temperature: 39°F , 4°C
Dew Point: 27°F , -3°C
Humidity: 61%
Barometer: 30.22 inHg , 1023.4 hPa
Clouds: Clear
Visibility: 10 miles , 16 km
2020/01/21 14:51 KROW 211451Z 15003KT 10SM CLR 04/M03 A3022 RMK AO2 SLP223 T00441028 56002
KATS - Artesia, New Mexico, USA
Distance from station: WSW 71mi, 114km
Updated: Tue, 21-Jan-2020 8:35am MST
Clear
Clear
 Wind from SSE
Wind: SSE 6 mph , 9 km/h
Temperature: 39°F , 4°C
Wind Chill: 35°F , 2°C
Dew Point: 25°F , -4°C
Humidity: 56%
Barometer: 30.26 inHg , 1024.7 hPa
Clouds: Clear
Visibility: 10 miles , 16 km
2020/01/21 15:35 KATS 211535Z AUTO 16005KT 10SM CLR 04/M04 A3026 RMK AO2
 
KCVS - Cannon AFB,Clovis, New Mexico, USA
Distance from station: 0 78mi, 125km
Updated: Tue, 21-Jan-2020 7:58am MST
Overcast
Overcast
 Wind from SSE
Wind: SSE 9 mph , 15 km/h
Temperature: 37°F , 3°C
Wind Chill: 30°F , -1°C
Dew Point: 27°F , -3°C
Humidity: 65%
Barometer: 30.27 inHg , 1025.1 hPa
Clouds: Overcast
Visibility: 10 miles , 16 km
Cloud details: Overcast 4300 ft
2020/01/21 14:58 KCVS 211458Z AUTO 15008KT 10SM OVC043 03/M03 A3027 RMK AO2 SLP255 60000 T00311035 53001 $
KE11 - Andrews, Texas, USA
Distance from station: SE 78mi, 126km
Updated: Tue, 21-Jan-2020 8:35am MST
Overcast
Overcast
 Wind from SE
Wind: SE 13 mph , 20 km/h, Gust: 17 mph , 28 km/h
Temperature: 43°F , 6°C
Wind Chill: 36°F , 2°C
Dew Point: 27°F , -3°C
Humidity: 53%
Barometer: 30.30 inHg , 1026.1 hPa
Clouds: Overcast
Visibility: 10 miles , 16 km
Cloud details: Mostly cloudy 6000 ft
Overcast 7000 ft
2020/01/21 15:35 KE11 211535Z AUTO 14011G15KT 10SM BKN060 OVC070 06/M03 A3030 RMK AO2 T00551030
 
KCNM - Carlsbad, New Mexico, USA
Distance from station: SW 82mi, 132km
Updated: Tue, 21-Jan-2020 7:53am MST
Clear
Clear
 Wind from SE
Wind: SE 7 mph , 11 km/h
Temperature: 39°F , 4°C
Wind Chill: 34°F , 1°C
Dew Point: 25°F , -4°C
Humidity: 56%
Barometer: 30.22 inHg , 1023.4 hPa
Clouds: Clear
Visibility: 10 miles , 16 km
2020/01/21 14:53 KCNM 211453Z AUTO 13006KT 10SM CLR 04/M04 A3022 RMK AO2 SLP224 T00441044 50000
KCVN - Clovis Muni, New Mexico, USA
Distance from station: N 83mi, 133km
Updated: Tue, 21-Jan-2020 7:56am MST
Overcast
Overcast
 Wind from SSE
Wind: SSE 10 mph , 17 km/h
Temperature: 37°F , 3°C
Wind Chill: 30°F , -1°C
Dew Point: 25°F , -4°C
Humidity: 60%
Barometer: 30.28 inHg , 1025.4 hPa
Clouds: Overcast
Visibility: 10 miles , 16 km
Cloud details: Overcast 4700 ft
2020/01/21 14:56 KCVN 211456Z AUTO 16009KT 10SM OVC047 03/M04 A3028 RMK AO2 SLP266 T00281039 53001
 
KLBB - Lubbock, Texas, USA
Distance from station: ENE 92mi, 149km
Updated: Tue, 21-Jan-2020 7:53am MST
Overcast
Overcast
 Wind from SSE
Wind: SSE 9 mph , 15 km/h
Temperature: 41°F , 5°C
Wind Chill: 35°F , 2°C
Dew Point: 27°F , -3°C
Humidity: 57%
Barometer: 30.31 inHg , 1026.4 hPa
Clouds: Overcast
Visibility: 10 miles , 16 km
Cloud details: Partly cloudy 7000 ft
Partly cloudy 19000 ft
Overcast 25000 ft
2020/01/21 14:53 KLBB 211453Z 15008KT 10SM SCT070 SCT190 OVC250 05/M03 A3031 RMK AO2 SLP261 T00501033 50005 $
KINK - Wink, Texas, USA
Distance from station: S 101mi, 163km
Updated: Tue, 21-Jan-2020 7:53am MST
Clear
Clear
 Wind from ESE
Wind: ESE 15 mph , 24 km/h
Temperature: 43°F , 6°C
Wind Chill: 36°F , 2°C
Dew Point: 25°F , -4°C
Humidity: 49%
Barometer: 30.25 inHg , 1024.4 hPa
Clouds: Clear
Visibility: 10 miles , 16 km
2020/01/21 14:53 KINK 211453Z AUTO 12013KT 10SM CLR 06/M04 A3025 RMK AO2 SLP234 T00611044 53002
 
KMAF - Midland, Texas, USA
Distance from station: SE 111mi, 179km
Updated: Tue, 21-Jan-2020 7:53am MST
Overcast
Overcast
 Wind from SE
Wind: SE 14 mph , 22 km/h
Temperature: 43°F , 6°C
Wind Chill: 36°F , 2°C
Dew Point: 27°F , -3°C
Humidity: 53%
Barometer: 30.29 inHg , 1025.7 hPa
Clouds: Overcast
Visibility: 10 miles , 16 km
Cloud details: Mostly cloudy 6000 ft
Overcast 8000 ft
2020/01/21 14:53 KMAF 211453Z 13012KT 10SM BKN060 OVC080 06/M03 A3029 RMK AO2 SLP249 T00611028 53004
KSRR - Sierra B/Ruidoso, New Mexico, USA
Distance from station: W 127mi, 204km
Updated: Tue, 21-Jan-2020 8:35am MST
Mostly cloudy
Mostly cloudy
 Wind from calm
Wind: Calm
Temperature: 36°F , 2°C
Dew Point: 23°F , -5°C
Humidity: 60%
Barometer: 30.21 inHg , 1023 hPa
Clouds: Mostly cloudy
Visibility: 10 miles , 16 km
Cloud details: Few Clouds 4600 ft
Mostly cloudy 6500 ft
Mostly cloudy 10000 ft
2020/01/21 15:35 KSRR 211535Z AUTO 00000KT 10SM FEW046 BKN065 BKN100 02/M05 A3021 RMK AO2
 
KGDP - Guadalupe Pass, Texas, USA
Distance from station: SW 130mi, 209km
Updated: Tue, 21-Jan-2020 7:51am MST
Clear
Clear
 Wind from ENE
Wind: ENE 17 mph , 28 km/h
Temperature: 37°F , 3°C
Wind Chill: 27°F , -3°C
Dew Point: 27°F , -3°C
Humidity: 65%
Barometer: 30.20 inHg , 1022.7 hPa
Clouds: Clear
Visibility: 10 miles , 16 km
2020/01/21 14:51 KGDP 211451Z AUTO 06015KT 10SM CLR 03/M03 A3020 RMK AO2 SLP224 T00281033 58005